sensor_id;sensor_type;location;lat;lon;timestamp;temperature;humidity
56240;DHT22;42154;51.992;5.896;2023-02-02T00:01:19;7.80;99.90
56240;DHT22;42154;51.992;5.896;2023-02-02T00:03:45;7.90;99.90
56240;DHT22;42154;51.992;5.896;2023-02-02T00:06:11;7.80;99.90
56240;DHT22;42154;51.992;5.896;2023-02-02T00:08:37;7.90;99.90
56240;DHT22;42154;51.992;5.896;2023-02-02T00:11:04;7.90;99.90
56240;DHT22;42154;51.992;5.896;2023-02-02T00:13:31;7.90;99.90
56240;DHT22;42154;51.992;5.896;2023-02-02T00:15:57;7.90;99.90
56240;DHT22;42154;51.992;5.896;2023-02-02T00:18:23;7.90;99.90
56240;DHT22;42154;51.992;5.896;2023-02-02T00:20:48;7.90;99.90
56240;DHT22;42154;51.992;5.896;2023-02-02T00:23:15;7.80;99.90
56240;DHT22;42154;51.992;5.896;2023-02-02T00:25:42;7.90;99.90
56240;DHT22;42154;51.992;5.896;2023-02-02T00:28:08;7.90;99.90
56240;DHT22;42154;51.992;5.896;2023-02-02T00:30:33;7.90;99.90
56240;DHT22;42154;51.992;5.896;2023-02-02T00:32:59;8.00;99.90
56240;DHT22;42154;51.992;5.896;2023-02-02T00:35:25;7.90;99.90
56240;DHT22;42154;51.992;5.896;2023-02-02T00:37:50;7.90;99.90
56240;DHT22;42154;51.992;5.896;2023-02-02T00:40:16;7.90;99.90
56240;DHT22;42154;51.992;5.896;2023-02-02T00:42:42;8.00;99.90
56240;DHT22;42154;51.992;5.896;2023-02-02T00:45:13;8.00;99.90
56240;DHT22;42154;51.992;5.896;2023-02-02T00:47:48;7.90;99.90
56240;DHT22;42154;51.992;5.896;2023-02-02T00:50:18;7.90;99.90
56240;DHT22;42154;51.992;5.896;2023-02-02T00:52:48;7.90;99.90
56240;DHT22;42154;51.992;5.896;2023-02-02T00:55:15;7.90;99.90
56240;DHT22;42154;51.992;5.896;2023-02-02T00:57:41;7.90;99.90
56240;DHT22;42154;51.992;5.896;2023-02-02T01:00:15;7.90;99.90
56240;DHT22;42154;51.992;5.896;2023-02-02T01:02:42;7.80;99.90
56240;DHT22;42154;51.992;5.896;2023-02-02T01:05:09;7.90;99.90
56240;DHT22;42154;51.992;5.896;2023-02-02T01:07:36;7.80;99.90
56240;DHT22;42154;51.992;5.896;2023-02-02T01:10:02;7.90;99.90
56240;DHT22;42154;51.992;5.896;2023-02-02T01:12:28;7.90;99.90
56240;DHT22;42154;51.992;5.896;2023-02-02T01:14:53;7.90;99.90
56240;DHT22;42154;51.992;5.896;2023-02-02T01:17:20;7.90;99.90
56240;DHT22;42154;51.992;5.896;2023-02-02T01:19:45;7.90;99.90
56240;DHT22;42154;51.992;5.896;2023-02-02T01:22:11;7.90;99.90
56240;DHT22;42154;51.992;5.896;2023-02-02T01:24:37;7.90;99.90
56240;DHT22;42154;51.992;5.896;2023-02-02T01:27:03;8.00;99.90
56240;DHT22;42154;51.992;5.896;2023-02-02T01:29:30;8.00;99.90
56240;DHT22;42154;51.992;5.896;2023-02-02T01:31:55;7.90;99.90
56240;DHT22;42154;51.992;5.896;2023-02-02T01:34:21;8.00;99.90
56240;DHT22;42154;51.992;5.896;2023-02-02T01:36:47;8.00;99.90
56240;DHT22;42154;51.992;5.896;2023-02-02T01:39:13;8.00;99.90
56240;DHT22;42154;51.992;5.896;2023-02-02T01:41:40;8.00;99.90
56240;DHT22;42154;51.992;5.896;2023-02-02T01:47:10;8.00;99.90
56240;DHT22;42154;51.992;5.896;2023-02-02T01:49:37;7.90;99.90
56240;DHT22;42154;51.992;5.896;2023-02-02T01:52:03;7.90;99.90
56240;DHT22;42154;51.992;5.896;2023-02-02T01:54:46;8.00;99.90
56240;DHT22;42154;51.992;5.896;2023-02-02T01:57:28;7.90;99.90
56240;DHT22;42154;51.992;5.896;2023-02-02T01:59:56;7.90;99.90
56240;DHT22;42154;51.992;5.896;2023-02-02T02:02:24;7.90;99.90
56240;DHT22;42154;51.992;5.896;2023-02-02T02:04:53;7.90;99.90
56240;DHT22;42154;51.992;5.896;2023-02-02T02:07:20;7.90;99.90
56240;DHT22;42154;51.992;5.896;2023-02-02T02:09:46;7.90;99.90
56240;DHT22;42154;51.992;5.896;2023-02-02T02:12:13;7.90;99.90
56240;DHT22;42154;51.992;5.896;2023-02-02T02:14:47;7.90;99.90
56240;DHT22;42154;51.992;5.896;2023-02-02T02:29:08;7.80;99.90
56240;DHT22;42154;51.992;5.896;2023-02-02T02:34:20;7.80;99.90
56240;DHT22;42154;51.992;5.896;2023-02-02T02:37:09;7.70;99.90
56240;DHT22;42154;51.992;5.896;2023-02-02T02:39:55;7.70;99.90
56240;DHT22;42154;51.992;5.896;2023-02-02T02:42:25;7.70;99.90
56240;DHT22;42154;51.992;5.896;2023-02-02T02:44:54;7.70;99.90
56240;DHT22;42154;51.992;5.896;2023-02-02T02:47:21;7.70;99.90
56240;DHT22;42154;51.992;5.896;2023-02-02T02:49:48;7.70;99.90
56240;DHT22;42154;51.992;5.896;2023-02-02T02:52:14;7.60;99.90
56240;DHT22;42154;51.992;5.896;2023-02-02T02:54:52;7.70;99.90
56240;DHT22;42154;51.992;5.896;2023-02-02T03:00:42;7.70;99.90
56240;DHT22;42154;51.992;5.896;2023-02-02T03:06:04;7.70;99.90
56240;DHT22;42154;51.992;5.896;2023-02-02T03:08:45;7.60;99.90
56240;DHT22;42154;51.992;5.896;2023-02-02T03:11:12;7.70;99.90
56240;DHT22;42154;51.992;5.896;2023-02-02T03:13:40;7.70;99.90
56240;DHT22;42154;51.992;5.896;2023-02-02T03:16:07;7.70;99.90
56240;DHT22;42154;51.992;5.896;2023-02-02T03:18:33;7.70;99.90
56240;DHT22;42154;51.992;5.896;2023-02-02T03:20:59;7.80;99.90
56240;DHT22;42154;51.992;5.896;2023-02-02T03:23:26;7.70;99.90
56240;DHT22;42154;51.992;5.896;2023-02-02T03:25:52;7.80;99.90
56240;DHT22;42154;51.992;5.896;2023-02-02T03:28:19;7.80;99.90
56240;DHT22;42154;51.992;5.896;2023-02-02T03:30:46;7.80;99.90
56240;DHT22;42154;51.992;5.896;2023-02-02T03:33:13;7.80;99.90
56240;DHT22;42154;51.992;5.896;2023-02-02T03:35:39;7.80;99.90
56240;DHT22;42154;51.992;5.896;2023-02-02T03:38:06;7.80;99.90
56240;DHT22;42154;51.992;5.896;2023-02-02T03:40:31;7.80;99.90
56240;DHT22;42154;51.992;5.896;2023-02-02T03:42:57;7.80;99.90
56240;DHT22;42154;51.992;5.896;2023-02-02T03:45:26;7.80;99.90
56240;DHT22;42154;51.992;5.896;2023-02-02T03:47:52;7.80;99.90
56240;DHT22;42154;51.992;5.896;2023-02-02T03:50:18;7.80;99.90
56240;DHT22;42154;51.992;5.896;2023-02-02T03:52:43;7.80;99.90
56240;DHT22;42154;51.992;5.896;2023-02-02T03:55:09;7.80;99.90
56240;DHT22;42154;51.992;5.896;2023-02-02T03:57:35;7.80;99.90
56240;DHT22;42154;51.992;5.896;2023-02-02T04:00:00;7.90;99.90
56240;DHT22;42154;51.992;5.896;2023-02-02T04:02:26;7.80;99.90
56240;DHT22;42154;51.992;5.896;2023-02-02T04:04:52;7.90;99.90
56240;DHT22;42154;51.992;5.896;2023-02-02T04:07:18;7.90;99.90
56240;DHT22;42154;51.992;5.896;2023-02-02T04:09:43;7.90;99.90
56240;DHT22;42154;51.992;5.896;2023-02-02T04:12:09;7.90;99.90
56240;DHT22;42154;51.992;5.896;2023-02-02T04:14:35;7.90;99.90
56240;DHT22;42154;51.992;5.896;2023-02-02T04:17:00;7.90;99.90
56240;DHT22;42154;51.992;5.896;2023-02-02T04:19:26;7.90;99.90
56240;DHT22;42154;51.992;5.896;2023-02-02T04:21:52;7.90;99.90
56240;DHT22;42154;51.992;5.896;2023-02-02T04:24:18;7.90;99.90
56240;DHT22;42154;51.992;5.896;2023-02-02T04:26:44;7.90;99.90
56240;DHT22;42154;51.992;5.896;2023-02-02T04:29:10;8.00;99.90
56240;DHT22;42154;51.992;5.896;2023-02-02T04:31:36;8.00;99.90
56240;DHT22;42154;51.992;5.896;2023-02-02T04:34:02;8.00;99.90
56240;DHT22;42154;51.992;5.896;2023-02-02T04:36:27;8.00;99.90
56240;DHT22;42154;51.992;5.896;2023-02-02T04:38:53;8.10;99.90
56240;DHT22;42154;51.992;5.896;2023-02-02T04:41:20;8.00;99.90
56240;DHT22;42154;51.992;5.896;2023-02-02T04:43:47;8.00;99.90
56240;DHT22;42154;51.992;5.896;2023-02-02T04:46:13;8.10;99.90
56240;DHT22;42154;51.992;5.896;2023-02-02T04:48:39;8.10;99.90
56240;DHT22;42154;51.992;5.896;2023-02-02T04:51:13;8.20;99.90
56240;DHT22;42154;51.992;5.896;2023-02-02T04:53:40;8.10;99.90
56240;DHT22;42154;51.992;5.896;2023-02-02T04:56:08;8.10;99.90
56240;DHT22;42154;51.992;5.896;2023-02-02T04:58:34;8.10;99.90
56240;DHT22;42154;51.992;5.896;2023-02-02T05:01:00;8.10;99.90
56240;DHT22;42154;51.992;5.896;2023-02-02T05:03:26;8.10;99.90
56240;DHT22;42154;51.992;5.896;2023-02-02T05:06:00;8.20;99.90
56240;DHT22;42154;51.992;5.896;2023-02-02T05:08:27;8.20;99.90
56240;DHT22;42154;51.992;5.896;2023-02-02T05:10:52;8.20;99.90
56240;DHT22;42154;51.992;5.896;2023-02-02T05:13:18;8.20;99.90
56240;DHT22;42154;51.992;5.896;2023-02-02T05:15:44;8.20;99.90
56240;DHT22;42154;51.992;5.896;2023-02-02T05:18:09;8.20;99.90
56240;DHT22;42154;51.992;5.896;2023-02-02T05:20:35;8.20;99.90
56240;DHT22;42154;51.992;5.896;2023-02-02T05:23:01;8.30;99.90
56240;DHT22;42154;51.992;5.896;2023-02-02T05:25:26;8.30;99.90
56240;DHT22;42154;51.992;5.896;2023-02-02T05:27:52;8.30;99.90
56240;DHT22;42154;51.992;5.896;2023-02-02T05:30:18;8.20;99.90
56240;DHT22;42154;51.992;5.896;2023-02-02T05:32:44;8.30;99.90
56240;DHT22;42154;51.992;5.896;2023-02-02T05:35:09;8.30;99.90
56240;DHT22;42154;51.992;5.896;2023-02-02T05:37:35;8.30;99.90
56240;DHT22;42154;51.992;5.896;2023-02-02T05:40:02;8.30;99.90
56240;DHT22;42154;51.992;5.896;2023-02-02T05:42:28;8.30;99.90
56240;DHT22;42154;51.992;5.896;2023-02-02T05:44:54;8.30;99.90
56240;DHT22;42154;51.992;5.896;2023-02-02T05:47:20;8.30;99.90
56240;DHT22;42154;51.992;5.896;2023-02-02T05:49:46;8.30;99.90
56240;DHT22;42154;51.992;5.896;2023-02-02T05:52:17;8.30;99.90
56240;DHT22;42154;51.992;5.896;2023-02-02T05:54:44;8.30;99.90
56240;DHT22;42154;51.992;5.896;2023-02-02T05:57:10;8.30;99.90
56240;DHT22;42154;51.992;5.896;2023-02-02T05:59:35;8.30;99.90
56240;DHT22;42154;51.992;5.896;2023-02-02T06:02:01;8.40;99.90
56240;DHT22;42154;51.992;5.896;2023-02-02T06:04:27;8.30;99.90
56240;DHT22;42154;51.992;5.896;2023-02-02T06:06:53;8.40;99.90
56240;DHT22;42154;51.992;5.896;2023-02-02T06:09:18;8.40;99.90
56240;DHT22;42154;51.992;5.896;2023-02-02T06:11:45;8.40;99.90
56240;DHT22;42154;51.992;5.896;2023-02-02T06:14:11;8.30;99.90
56240;DHT22;42154;51.992;5.896;2023-02-02T06:16:36;8.40;99.90
56240;DHT22;42154;51.992;5.896;2023-02-02T06:19:03;8.40;99.90
56240;DHT22;42154;51.992;5.896;2023-02-02T06:21:29;8.40;99.90
56240;DHT22;42154;51.992;5.896;2023-02-02T06:23:57;8.40;99.90
56240;DHT22;42154;51.992;5.896;2023-02-02T06:26:24;8.40;99.90
56240;DHT22;42154;51.992;5.896;2023-02-02T06:28:52;8.40;99.90
56240;DHT22;42154;51.992;5.896;2023-02-02T06:31:19;8.40;99.90
56240;DHT22;42154;51.992;5.896;2023-02-02T06:33:46;8.40;99.90
56240;DHT22;42154;51.992;5.896;2023-02-02T06:36:12;8.40;99.90
56240;DHT22;42154;51.992;5.896;2023-02-02T06:38:38;8.40;99.90
56240;DHT22;42154;51.992;5.896;2023-02-02T06:41:04;8.40;99.90
56240;DHT22;42154;51.992;5.896;2023-02-02T06:43:31;8.40;99.90
56240;DHT22;42154;51.992;5.896;2023-02-02T06:45:57;8.40;99.90
56240;DHT22;42154;51.992;5.896;2023-02-02T06:48:23;8.40;99.90
56240;DHT22;42154;51.992;5.896;2023-02-02T06:50:49;8.40;99.90
56240;DHT22;42154;51.992;5.896;2023-02-02T06:53:15;8.40;99.90
56240;DHT22;42154;51.992;5.896;2023-02-02T06:56:03;8.40;99.90
56240;DHT22;42154;51.992;5.896;2023-02-02T06:58:30;8.40;99.90
56240;DHT22;42154;51.992;5.896;2023-02-02T07:01:03;8.40;99.90
56240;DHT22;42154;51.992;5.896;2023-02-02T07:03:29;8.40;99.90
56240;DHT22;42154;51.992;5.896;2023-02-02T07:05:55;8.40;99.90
56240;DHT22;42154;51.992;5.896;2023-02-02T07:08:21;8.40;99.90
56240;DHT22;42154;51.992;5.896;2023-02-02T07:10:47;8.30;99.90
56240;DHT22;42154;51.992;5.896;2023-02-02T07:13:12;8.40;99.90
56240;DHT22;42154;51.992;5.896;2023-02-02T07:15:39;8.40;99.90
56240;DHT22;42154;51.992;5.896;2023-02-02T07:18:05;8.40;99.90
56240;DHT22;42154;51.992;5.896;2023-02-02T07:20:31;8.40;99.90
56240;DHT22;42154;51.992;5.896;2023-02-02T07:22:57;8.40;99.90
56240;DHT22;42154;51.992;5.896;2023-02-02T07:25:23;8.40;99.90
56240;DHT22;42154;51.992;5.896;2023-02-02T07:27:53;8.40;99.90
56240;DHT22;42154;51.992;5.896;2023-02-02T07:30:19;8.40;99.90
56240;DHT22;42154;51.992;5.896;2023-02-02T07:32:49;8.40;99.90
56240;DHT22;42154;51.992;5.896;2023-02-02T07:35:17;8.40;99.90
56240;DHT22;42154;51.992;5.896;2023-02-02T07:37:43;8.40;99.90
56240;DHT22;42154;51.992;5.896;2023-02-02T07:40:09;8.40;99.90
56240;DHT22;42154;51.992;5.896;2023-02-02T07:42:35;8.40;99.90
56240;DHT22;42154;51.992;5.896;2023-02-02T07:45:01;8.40;99.90
56240;DHT22;42154;51.992;5.896;2023-02-02T07:47:27;8.30;99.90
56240;DHT22;42154;51.992;5.896;2023-02-02T07:49:53;8.30;99.90
56240;DHT22;42154;51.992;5.896;2023-02-02T07:52:18;8.40;99.90
56240;DHT22;42154;51.992;5.896;2023-02-02T07:54:51;8.40;99.90
56240;DHT22;42154;51.992;5.896;2023-02-02T07:57:16;8.30;99.90
56240;DHT22;42154;51.992;5.896;2023-02-02T07:59:42;8.40;99.90
56240;DHT22;42154;51.992;5.896;2023-02-02T08:02:09;8.40;99.90
56240;DHT22;42154;51.992;5.896;2023-02-02T08:04:35;8.40;99.90
56240;DHT22;42154;51.992;5.896;2023-02-02T08:07:00;8.40;99.90
56240;DHT22;42154;51.992;5.896;2023-02-02T08:09:26;8.30;99.90
56240;DHT22;42154;51.992;5.896;2023-02-02T08:11:52;8.40;99.90
56240;DHT22;42154;51.992;5.896;2023-02-02T08:14:17;8.30;99.90
56240;DHT22;42154;51.992;5.896;2023-02-02T08:16:43;8.40;99.90
56240;DHT22;42154;51.992;5.896;2023-02-02T08:19:10;8.40;99.90
56240;DHT22;42154;51.992;5.896;2023-02-02T08:21:36;8.30;99.90
56240;DHT22;42154;51.992;5.896;2023-02-02T08:24:02;8.30;99.90
56240;DHT22;42154;51.992;5.896;2023-02-02T08:26:30;8.30;99.90
56240;DHT22;42154;51.992;5.896;2023-02-02T08:28:58;8.30;99.90
56240;DHT22;42154;51.992;5.896;2023-02-02T08:31:36;8.30;99.90
56240;DHT22;42154;51.992;5.896;2023-02-02T08:34:03;8.40;99.90
56240;DHT22;42154;51.992;5.896;2023-02-02T08:36:29;8.30;99.90
56240;DHT22;42154;51.992;5.896;2023-02-02T08:38:59;8.40;99.90
56240;DHT22;42154;51.992;5.896;2023-02-02T08:41:25;8.40;99.90
56240;DHT22;42154;51.992;5.896;2023-02-02T08:43:51;8.40;99.90
56240;DHT22;42154;51.992;5.896;2023-02-02T08:46:18;8.40;99.90
56240;DHT22;42154;51.992;5.896;2023-02-02T08:48:44;8.50;99.90
56240;DHT22;42154;51.992;5.896;2023-02-02T08:51:13;8.50;99.90
56240;DHT22;42154;51.992;5.896;2023-02-02T08:53:40;8.50;99.90
56240;DHT22;42154;51.992;5.896;2023-02-02T08:56:17;8.50;99.90
56240;DHT22;42154;51.992;5.896;2023-02-02T08:58:49;8.60;99.90
56240;DHT22;42154;51.992;5.896;2023-02-02T09:01:28;8.60;99.90
56240;DHT22;42154;51.992;5.896;2023-02-02T09:03:59;8.60;99.90
56240;DHT22;42154;51.992;5.896;2023-02-02T09:06:29;8.60;99.90
56240;DHT22;42154;51.992;5.896;2023-02-02T09:08:55;8.60;99.90
56240;DHT22;42154;51.992;5.896;2023-02-02T09:11:21;8.60;99.90
56240;DHT22;42154;51.992;5.896;2023-02-02T09:13:48;8.60;99.90
56240;DHT22;42154;51.992;5.896;2023-02-02T09:16:17;8.70;99.90
56240;DHT22;42154;51.992;5.896;2023-02-02T09:18:44;8.70;99.90
56240;DHT22;42154;51.992;5.896;2023-02-02T09:21:12;8.70;99.90
56240;DHT22;42154;51.992;5.896;2023-02-02T09:23:40;8.80;99.90
56240;DHT22;42154;51.992;5.896;2023-02-02T09:28:53;8.80;99.90
56240;DHT22;42154;51.992;5.896;2023-02-02T09:31:19;8.80;99.90
56240;DHT22;42154;51.992;5.896;2023-02-02T09:33:45;8.80;99.90
56240;DHT22;42154;51.992;5.896;2023-02-02T09:36:14;8.90;99.90
56240;DHT22;42154;51.992;5.896;2023-02-02T09:38:40;8.90;99.90
56240;DHT22;42154;51.992;5.896;2023-02-02T09:46:40;9.00;99.90
56240;DHT22;42154;51.992;5.896;2023-02-02T09:49:13;9.00;99.90
56240;DHT22;42154;51.992;5.896;2023-02-02T09:51:50;9.00;99.90
56240;DHT22;42154;51.992;5.896;2023-02-02T09:54:43;8.90;99.90
56240;DHT22;42154;51.992;5.896;2023-02-02T09:57:38;9.00;99.90
56240;DHT22;42154;51.992;5.896;2023-02-02T10:02:54;9.00;99.90
56240;DHT22;42154;51.992;5.896;2023-02-02T10:05:27;9.00;99.90
56240;DHT22;42154;51.992;5.896;2023-02-02T10:07:57;9.00;99.90
56240;DHT22;42154;51.992;5.896;2023-02-02T10:10:34;9.10;99.90
56240;DHT22;42154;51.992;5.896;2023-02-02T10:13:17;9.10;99.90
56240;DHT22;42154;51.992;5.896;2023-02-02T10:16:03;9.10;99.90
56240;DHT22;42154;51.992;5.896;2023-02-02T10:18:36;9.10;99.90
56240;DHT22;42154;51.992;5.896;2023-02-02T10:21:14;9.20;99.90
56240;DHT22;42154;51.992;5.896;2023-02-02T10:23:42;9.20;99.90
56240;DHT22;42154;51.992;5.896;2023-02-02T10:37:37;9.20;99.90
56240;DHT22;42154;51.992;5.896;2023-02-02T10:40:41;9.30;99.90
56240;DHT22;42154;51.992;5.896;2023-02-02T10:43:32;9.30;99.90
56240;DHT22;42154;51.992;5.896;2023-02-02T10:46:25;9.20;99.90
56240;DHT22;42154;51.992;5.896;2023-02-02T10:51:39;9.20;99.90
56240;DHT22;42154;51.992;5.896;2023-02-02T10:55:02;9.30;99.90
56240;DHT22;42154;51.992;5.896;2023-02-02T10:57:11;9.30;99.90
56240;DHT22;42154;51.992;5.896;2023-02-02T11:02:26;9.30;99.90
56240;DHT22;42154;51.992;5.896;2023-02-02T11:04:52;9.40;99.90
56240;DHT22;42154;51.992;5.896;2023-02-02T11:07:36;9.50;99.90
56240;DHT22;42154;51.992;5.896;2023-02-02T11:10:02;9.50;99.90
56240;DHT22;42154;51.992;5.896;2023-02-02T11:12:32;9.50;99.90
56240;DHT22;42154;51.992;5.896;2023-02-02T11:14:59;9.50;99.90
56240;DHT22;42154;51.992;5.896;2023-02-02T11:17:35;9.50;99.90
56240;DHT22;42154;51.992;5.896;2023-02-02T11:20:01;9.50;99.90
56240;DHT22;42154;51.992;5.896;2023-02-02T11:22:35;9.50;99.90
56240;DHT22;42154;51.992;5.896;2023-02-02T11:25:05;9.60;99.90
56240;DHT22;42154;51.992;5.896;2023-02-02T11:30:31;9.50;99.90
56240;DHT22;42154;51.992;5.896;2023-02-02T11:32:55;9.50;99.90
56240;DHT22;42154;51.992;5.896;2023-02-02T11:35:25;9.50;99.90
56240;DHT22;42154;51.992;5.896;2023-02-02T11:37:55;9.50;99.90
56240;DHT22;42154;51.992;5.896;2023-02-02T11:40:31;9.50;99.90
56240;DHT22;42154;51.992;5.896;2023-02-02T11:43:01;9.50;99.90
56240;DHT22;42154;51.992;5.896;2023-02-02T11:48:17;9.50;99.90
56240;DHT22;42154;51.992;5.896;2023-02-02T11:50:50;9.50;99.90
56240;DHT22;42154;51.992;5.896;2023-02-02T11:53:34;9.50;99.90
56240;DHT22;42154;51.992;5.896;2023-02-02T11:56:08;9.60;99.90
56240;DHT22;42154;51.992;5.896;2023-02-02T11:58:49;9.60;99.90
56240;DHT22;42154;51.992;5.896;2023-02-02T12:01:22;9.60;99.90
56240;DHT22;42154;51.992;5.896;2023-02-02T12:03:49;9.60;99.90
56240;DHT22;42154;51.992;5.896;2023-02-02T12:06:20;9.50;99.90
56240;DHT22;42154;51.992;5.896;2023-02-02T12:08:46;9.50;99.90
56240;DHT22;42154;51.992;5.896;2023-02-02T12:11:28;9.50;99.90
56240;DHT22;42154;51.992;5.896;2023-02-02T12:14:15;9.50;99.90
56240;DHT22;42154;51.992;5.896;2023-02-02T12:22:40;9.50;99.90
56240;DHT22;42154;51.992;5.896;2023-02-02T12:42:27;9.60;99.90
56240;DHT22;42154;51.992;5.896;2023-02-02T12:49:26;9.50;99.90
56240;DHT22;42154;51.992;5.896;2023-02-02T13:13:00;9.40;99.90
56240;DHT22;42154;51.992;5.896;2023-02-02T13:15:34;9.40;99.90
56240;DHT22;42154;51.992;5.896;2023-02-02T13:18:07;9.40;99.90
56240;DHT22;42154;51.992;5.896;2023-02-02T13:20:42;9.30;99.90
56240;DHT22;42154;51.992;5.896;2023-02-02T13:23:18;9.30;99.90
56240;DHT22;42154;51.992;5.896;2023-02-02T13:26:05;9.30;99.90
56240;DHT22;42154;51.992;5.896;2023-02-02T13:28:39;9.40;99.90
56240;DHT22;42154;51.992;5.896;2023-02-02T13:31:15;9.30;99.90
56240;DHT22;42154;51.992;5.896;2023-02-02T13:33:43;9.30;99.90
56240;DHT22;42154;51.992;5.896;2023-02-02T13:36:19;9.30;99.90
56240;DHT22;42154;51.992;5.896;2023-02-02T13:38:54;9.30;99.90
56240;DHT22;42154;51.992;5.896;2023-02-02T13:41:21;9.30;99.90
56240;DHT22;42154;51.992;5.896;2023-02-02T13:46:25;9.30;99.90
56240;DHT22;42154;51.992;5.896;2023-02-02T14:02:51;9.20;99.90
56240;DHT22;42154;51.992;5.896;2023-02-02T14:05:23;9.20;99.90
56240;DHT22;42154;51.992;5.896;2023-02-02T14:10:26;9.20;99.90
56240;DHT22;42154;51.992;5.896;2023-02-02T14:12:53;9.20;99.90
56240;DHT22;42154;51.992;5.896;2023-02-02T14:15:38;9.20;99.90
56240;DHT22;42154;51.992;5.896;2023-02-02T14:18:05;9.20;99.90
56240;DHT22;42154;51.992;5.896;2023-02-02T14:20:47;9.20;99.90
56240;DHT22;42154;51.992;5.896;2023-02-02T14:23:48;9.20;99.90
56240;DHT22;42154;51.992;5.896;2023-02-02T14:26:18;9.20;99.90
56240;DHT22;42154;51.992;5.896;2023-02-02T14:28:48;9.20;99.90
56240;DHT22;42154;51.992;5.896;2023-02-02T14:31:28;9.20;99.90
56240;DHT22;42154;51.992;5.896;2023-02-02T14:51:21;9.10;99.90
56240;DHT22;42154;51.992;5.896;2023-02-02T14:56:21;9.20;99.90
56240;DHT22;42154;51.992;5.896;2023-02-02T14:59:04;9.20;99.90
56240;DHT22;42154;51.992;5.896;2023-02-02T15:01:33;9.20;99.90
56240;DHT22;42154;51.992;5.896;2023-02-02T15:06:44;9.20;99.90
56240;DHT22;42154;51.992;5.896;2023-02-02T15:20:27;9.30;99.90
56240;DHT22;42154;51.992;5.896;2023-02-02T15:23:15;9.20;99.90
56240;DHT22;42154;51.992;5.896;2023-02-02T15:26:07;9.20;99.90
56240;DHT22;42154;51.992;5.896;2023-02-02T15:33:56;9.20;99.90
56240;DHT22;42154;51.992;5.896;2023-02-02T15:36:26;9.10;99.90
56240;DHT22;42154;51.992;5.896;2023-02-02T15:38:57;9.10;99.90
56240;DHT22;42154;51.992;5.896;2023-02-02T15:41:33;9.20;99.90
56240;DHT22;42154;51.992;5.896;2023-02-02T15:44:00;9.20;99.90
56240;DHT22;42154;51.992;5.896;2023-02-02T15:46:33;9.10;99.90
56240;DHT22;42154;51.992;5.896;2023-02-02T15:51:52;9.20;99.90
56240;DHT22;42154;51.992;5.896;2023-02-02T15:54:28;9.10;99.90
56240;DHT22;42154;51.992;5.896;2023-02-02T15:56:55;9.20;99.90
56240;DHT22;42154;51.992;5.896;2023-02-02T15:59:36;9.20;99.90
56240;DHT22;42154;51.992;5.896;2023-02-02T16:04:39;9.10;99.90
56240;DHT22;42154;51.992;5.896;2023-02-02T16:07:12;9.20;99.90
56240;DHT22;42154;51.992;5.896;2023-02-02T16:09:39;9.10;99.90
56240;DHT22;42154;51.992;5.896;2023-02-02T16:12:16;9.10;99.90
56240;DHT22;42154;51.992;5.896;2023-02-02T16:14:48;9.10;99.90
56240;DHT22;42154;51.992;5.896;2023-02-02T16:17:28;9.10;99.90
56240;DHT22;42154;51.992;5.896;2023-02-02T16:20:11;9.10;99.90
56240;DHT22;42154;51.992;5.896;2023-02-02T16:22:39;9.10;99.90
56240;DHT22;42154;51.992;5.896;2023-02-02T16:25:14;9.10;99.90
56240;DHT22;42154;51.992;5.896;2023-02-02T16:27:41;9.10;99.90
56240;DHT22;42154;51.992;5.896;2023-02-02T16:30:36;9.10;99.90
56240;DHT22;42154;51.992;5.896;2023-02-02T16:33:29;9.10;99.90
56240;DHT22;42154;51.992;5.896;2023-02-02T16:35:58;9.10;99.90
56240;DHT22;42154;51.992;5.896;2023-02-02T16:38:32;9.10;99.90
56240;DHT22;42154;51.992;5.896;2023-02-02T16:43:51;9.10;99.90
56240;DHT22;42154;51.992;5.896;2023-02-02T16:46:43;9.10;99.90
56240;DHT22;42154;51.992;5.896;2023-02-02T16:49:20;9.10;99.90
56240;DHT22;42154;51.992;5.896;2023-02-02T16:51:48;9.10;99.90
56240;DHT22;42154;51.992;5.896;2023-02-02T16:54:29;9.10;99.90
56240;DHT22;42154;51.992;5.896;2023-02-02T16:56:59;9.10;99.90
56240;DHT22;42154;51.992;5.896;2023-02-02T16:59:34;9.10;99.90
56240;DHT22;42154;51.992;5.896;2023-02-02T17:02:28;9.10;99.90
56240;DHT22;42154;51.992;5.896;2023-02-02T17:05:05;9.10;99.90
56240;DHT22;42154;51.992;5.896;2023-02-02T17:07:33;9.10;99.90
56240;DHT22;42154;51.992;5.896;2023-02-02T17:12:46;9.10;99.90
56240;DHT22;42154;51.992;5.896;2023-02-02T17:15:33;9.10;99.90
56240;DHT22;42154;51.992;5.896;2023-02-02T17:18:00;9.10;99.90
56240;DHT22;42154;51.992;5.896;2023-02-02T17:20:27;9.10;99.90
56240;DHT22;42154;51.992;5.896;2023-02-02T17:23:04;9.10;99.90
56240;DHT22;42154;51.992;5.896;2023-02-02T17:25:34;9.10;99.90
56240;DHT22;42154;51.992;5.896;2023-02-02T17:28:03;9.10;99.90
56240;DHT22;42154;51.992;5.896;2023-02-02T17:30:31;9.10;99.90
56240;DHT22;42154;51.992;5.896;2023-02-02T17:32:57;9.10;99.90
56240;DHT22;42154;51.992;5.896;2023-02-02T17:35:26;9.10;99.90
56240;DHT22;42154;51.992;5.896;2023-02-02T17:37:52;9.10;99.90
56240;DHT22;42154;51.992;5.896;2023-02-02T17:40:20;9.10;99.90
56240;DHT22;42154;51.992;5.896;2023-02-02T17:42:49;9.00;99.90
56240;DHT22;42154;51.992;5.896;2023-02-02T17:45:22;9.10;99.90
56240;DHT22;42154;51.992;5.896;2023-02-02T17:47:49;9.10;99.90
56240;DHT22;42154;51.992;5.896;2023-02-02T17:50:15;9.10;99.90
56240;DHT22;42154;51.992;5.896;2023-02-02T17:52:41;9.10;99.90
56240;DHT22;42154;51.992;5.896;2023-02-02T17:57:48;9.10;99.90
56240;DHT22;42154;51.992;5.896;2023-02-02T18:00:15;9.10;99.90
56240;DHT22;42154;51.992;5.896;2023-02-02T18:02:42;9.10;99.90
56240;DHT22;42154;51.992;5.896;2023-02-02T18:05:09;9.10;99.90
56240;DHT22;42154;51.992;5.896;2023-02-02T18:07:35;9.10;99.90
56240;DHT22;42154;51.992;5.896;2023-02-02T18:10:04;9.10;99.90
56240;DHT22;42154;51.992;5.896;2023-02-02T18:12:30;9.10;99.90
56240;DHT22;42154;51.992;5.896;2023-02-02T18:15:05;9.10;99.90
56240;DHT22;42154;51.992;5.896;2023-02-02T18:17:33;9.10;99.90
56240;DHT22;42154;51.992;5.896;2023-02-02T18:19:59;9.10;99.90
56240;DHT22;42154;51.992;5.896;2023-02-02T18:22:25;9.10;99.90
56240;DHT22;42154;51.992;5.896;2023-02-02T18:24:51;9.10;99.90
56240;DHT22;42154;51.992;5.896;2023-02-02T18:27:17;9.00;99.90
56240;DHT22;42154;51.992;5.896;2023-02-02T18:29:46;9.10;99.90
56240;DHT22;42154;51.992;5.896;2023-02-02T18:32:13;9.10;99.90
56240;DHT22;42154;51.992;5.896;2023-02-02T18:34:39;9.10;99.90
56240;DHT22;42154;51.992;5.896;2023-02-02T18:37:05;9.00;99.90
56240;DHT22;42154;51.992;5.896;2023-02-02T18:39:30;9.10;99.90
56240;DHT22;42154;51.992;5.896;2023-02-02T18:41:57;9.00;99.90
56240;DHT22;42154;51.992;5.896;2023-02-02T18:44:23;9.00;99.90
56240;DHT22;42154;51.992;5.896;2023-02-02T18:46:52;9.00;99.90
56240;DHT22;42154;51.992;5.896;2023-02-02T18:49:18;9.00;99.90
56240;DHT22;42154;51.992;5.896;2023-02-02T18:51:44;9.00;99.90
56240;DHT22;42154;51.992;5.896;2023-02-02T18:54:12;9.00;99.90
56240;DHT22;42154;51.992;5.896;2023-02-02T18:56:38;9.00;99.90
56240;DHT22;42154;51.992;5.896;2023-02-02T18:59:04;9.00;99.90